< < Back
Terminal Aerodrome Forecast


Current Version              Previous Versions:   1  2  3  4  5  6  7  8  9  

Terminal Aerodrome Forecast

229
FTUS42 KFFC 222320
TAFPDK
TAF
KPDK 222320Z 2300/2324 02004KT P6SM SKC
     FM230200 00000KT P6SM SKC
     FM231400 11008KT P6SM FEW045
     FM231700 11010KT P6SM FEW045=



Latest METAR

935
SAUS70 KWBC 231000 RRN
MTRPDK
METAR KPDK 230953Z 00000KT 7SM CLR 12/11 A3030 RMK AO2 SLP254
T01220111


USA.gov is the U.S. government's official web portal to all federal, state and local government web resources and services.